Time;durP1;ratioP1;P1;durP2;ratioP2;P2;SDS_P1;SDS_P2;PMS_P1;PMS_P2;Temp;Humidity;BMP_temperature;BMP_pressure;BME280_temperature;BME280_humidity;BME280_pressure;Samples;Min_cycle;Max_cycle;Signal;HPM_P1;HPM_P2
2024/04/12 00:01:12;;;;;;;;;;;18.50;49.30;;;;;;5290519;26;82989;-38
2024/04/12 00:03:37;;;;;;;;;;;18.50;49.20;;;;;;5285953;26;80267;-37
2024/04/12 00:06:14;;;;;;;;;;;18.50;49.20;;;;;;5303256;26;82065;-38
2024/04/12 00:08:49;;;;;;;;;;;18.40;49.30;;;;;;5274808;26;81458;-38
2024/04/12 00:11:18;;;;;;;;;;;18.40;49.30;;;;;;5292397;26;80597;-38
2024/04/12 00:13:45;;;;;;;;;;;18.40;49.30;;;;;;5302556;26;81846;-38
2024/04/12 00:16:10;;;;;;;;;;;18.40;49.30;;;;;;5289510;26;81926;-38
2024/04/12 00:18:37;;;;;;;;;;;18.40;49.30;;;;;;5300095;26;80452;-38
2024/04/12 00:21:05;;;;;;;;;;;18.40;49.40;;;;;;5272708;26;82374;-37
2024/04/12 00:23:34;;;;;;;;;;;18.40;49.40;;;;;;5295534;26;81009;-37
2024/04/12 00:26:02;;;;;;;;;;;18.40;49.40;;;;;;5287656;26;81154;-38
2024/04/12 00:28:31;;;;;;;;;;;18.30;49.40;;;;;;5291504;26;81088;-38
2024/04/12 00:31:00;;;;;;;;;;;18.30;49.40;;;;;;5293930;26;80392;-38
2024/04/12 00:33:31;;;;;;;;;;;18.30;49.40;;;;;;5278220;26;81543;-38
2024/04/12 00:36:07;;;;;;;;;;;18.30;49.40;;;;;;5302341;26;82869;-38
2024/04/12 00:38:36;;;;;;;;;;;18.30;49.50;;;;;;5292592;26;80275;-37
2024/04/12 00:41:11;;;;;;;;;;;18.30;49.30;;;;;;5297977;26;80292;-38
2024/04/12 00:43:48;;;;;;;;;;;18.30;49.50;;;;;;5294864;26;80393;-38
2024/04/12 00:46:23;;;;;;;;;;;18.30;49.50;;;;;;5287974;26;81002;-38
2024/04/12 00:48:52;;;;;;;;;;;18.30;49.50;;;;;;5293703;26;82040;-38
2024/04/12 00:51:19;;;;;;;;;;;18.20;49.50;;;;;;5274882;26;81518;-38
2024/04/12 00:53:45;;;;;;;;;;;18.20;49.50;;;;;;5305923;26;82833;-38
2024/04/12 00:56:13;;;;;;;;;;;18.20;49.30;;;;;;5272035;26;81101;-38
2024/04/12 00:58:41;;;;;;;;;;;18.20;49.50;;;;;;5286259;26;80325;-38
2024/04/12 01:01:11;;;;;;;;;;;18.10;49.50;;;;;;5285296;26;80630;-38
2024/04/12 01:03:39;;;;;;;;;;;18.10;49.50;;;;;;5283845;26;80994;-38
2024/04/12 01:06:05;;;;;;;;;;;18.10;49.40;;;;;;5308779;26;81750;-38
2024/04/12 01:08:31;;;;;;;;;;;18.10;49.60;;;;;;5281776;26;80836;-38
2024/04/12 01:10:59;;;;;;;;;;;18.10;49.60;;;;;;5295876;26;80607;-38
2024/04/12 01:13:26;;;;;;;;;;;18.10;49.50;;;;;;5286424;26;80338;-38
2024/04/12 01:15:53;;;;;;;;;;;18.00;49.50;;;;;;5289804;26;83166;-39
2024/04/12 01:18:19;;;;;;;;;;;18.10;49.50;;;;;;5295782;26;80713;-38
2024/04/12 01:20:45;;;;;;;;;;;18.00;49.60;;;;;;5284390;26;81718;-38
2024/04/12 01:23:15;;;;;;;;;;;18.00;49.60;;;;;;5302787;26;80672;-38
2024/04/12 01:25:44;;;;;;;;;;;18.00;49.60;;;;;;5276626;26;81468;-38
2024/04/12 01:28:09;;;;;;;;;;;18.00;49.70;;;;;;5291783;26;80567;-38
2024/04/12 01:30:39;;;;;;;;;;;18.00;49.60;;;;;;5291156;26;81304;-38
2024/04/12 01:33:06;;;;;;;;;;;17.90;49.60;;;;;;5283261;26;81687;-38
2024/04/12 01:35:33;;;;;;;;;;;17.90;49.50;;;;;;5298021;26;82080;-38
2024/04/12 01:38:14;;;;;;;;;;;17.90;49.50;;;;;;5272217;26;80921;-38
2024/04/12 01:40:39;;;;;;;;;;;17.90;49.50;;;;;;5298521;26;81651;-38
2024/04/12 01:43:08;;;;;;;;;;;17.90;49.50;;;;;;5294797;26;81106;-38
2024/04/12 01:45:33;;;;;;;;;;;17.90;49.70;;;;;;5285020;26;80755;-38
2024/04/12 01:47:59;;;;;;;;;;;17.90;49.60;;;;;;5300287;26;82435;-39
2024/04/12 01:50:26;;;;;;;;;;;17.90;49.70;;;;;;5284795;26;80433;-38
2024/04/12 01:52:57;;;;;;;;;;;17.80;49.50;;;;;;5294790;26;80637;-38
2024/04/12 01:55:24;;;;;;;;;;;17.80;49.70;;;;;;5281158;26;82034;-38
2024/04/12 01:57:51;;;;;;;;;;;17.80;49.70;;;;;;5298057;26;79755;-38
2024/04/12 02:00:20;;;;;;;;;;;17.80;49.60;;;;;;5289074;26;80807;-38
2024/04/12 02:02:52;;;;;;;;;;;17.70;49.70;;;;;;5287517;26;81036;-37
2024/04/12 02:05:29;;;;;;;;;;;17.80;49.60;;;;;;5306170;26;82049;-38
2024/04/12 02:07:59;;;;;;;;;;;17.70;49.60;;;;;;5276104;26;82193;-38
2024/04/12 02:10:26;;;;;;;;;;;17.70;49.60;;;;;;5297733;26;80224;-38
2024/04/12 02:12:54;;;;;;;;;;;17.70;49.70;;;;;;5282793;26;81724;-38
2024/04/12 02:15:27;;;;;;;;;;;17.70;49.70;;;;;;5295575;26;82063;-38
2024/04/12 02:18:02;;;;;;;;;;;17.70;49.90;;;;;;5288095;26;80751;-38
2024/04/12 02:20:34;;;;;;;;;;;17.60;49.70;;;;;;5284586;26;82760;-38
2024/04/12 02:23:00;;;;;;;;;;;17.60;49.70;;;;;;5294796;26;81725;-38
2024/04/12 02:25:27;;;;;;;;;;;17.70;49.80;;;;;;5277674;26;80377;-38
2024/04/12 02:27:55;;;;;;;;;;;17.60;49.80;;;;;;5289047;26;81520;-38
2024/04/12 02:30:24;;;;;;;;;;;17.50;49.70;;;;;;5283244;26;81854;-38
2024/04/12 02:32:50;;;;;;;;;;;17.50;49.80;;;;;;5283374;26;81174;-39
2024/04/12 02:35:17;;;;;;;;;;;17.50;49.80;;;;;;5299501;26;80749;-38
2024/04/12 02:37:43;;;;;;;;;;;17.60;49.80;;;;;;5288883;26;80402;-38
2024/04/12 02:40:15;;;;;;;;;;;17.50;49.80;;;;;;5307135;26;80313;-38
2024/04/12 02:42:43;;;;;;;;;;;17.50;49.90;;;;;;5283263;26;81990;-38
2024/04/12 02:45:15;;;;;;;;;;;17.50;49.90;;;;;;5294858;26;80980;-38
2024/04/12 02:47:41;;;;;;;;;;;17.50;49.80;;;;;;5288619;26;80395;-38
2024/04/12 02:50:10;;;;;;;;;;;17.40;49.80;;;;;;5283967;26;81465;-38
2024/04/12 02:52:36;;;;;;;;;;;17.40;49.90;;;;;;5305240;26;80778;-38
2024/04/12 02:55:01;;;;;;;;;;;17.40;49.90;;;;;;5289089;26;81680;-39
2024/04/12 02:57:29;;;;;;;;;;;17.40;50.00;;;;;;5303397;26;80446;-38
2024/04/12 02:59:54;;;;;;;;;;;17.40;50.00;;;;;;5283441;26;81603;-38
2024/04/12 03:02:20;;;;;;;;;;;17.40;50.00;;;;;;5294015;26;81955;-38
2024/04/12 03:04:46;;;;;;;;;;;17.40;49.90;;;;;;5301508;26;80758;-38
2024/04/12 03:07:12;;;;;;;;;;;17.40;50.10;;;;;;5281816;26;80509;-38
2024/04/12 03:09:40;;;;;;;;;;;17.40;50.10;;;;;;5304747;26;82054;-38
2024/04/12 03:12:12;;;;;;;;;;;17.30;50.10;;;;;;5276598;26;79575;-38
2024/04/12 03:14:38;;;;;;;;;;;17.30;50.10;;;;;;5293367;26;81982;-38
2024/04/12 03:17:04;;;;;;;;;;;17.20;50.00;;;;;;5284566;26;80271;-38
2024/04/12 03:19:31;;;;;;;;;;;17.30;50.00;;;;;;5286698;26;81545;-38
2024/04/12 03:21:57;;;;;;;;;;;17.20;50.10;;;;;;5291074;26;81907;-38
2024/04/12 03:24:22;;;;;;;;;;;17.20;50.10;;;;;;5277804;26;81192;-38
2024/04/12 03:26:48;;;;;;;;;;;17.20;50.00;;;;;;5302047;26;81605;-38
2024/04/12 03:29:16;;;;;;;;;;;17.20;50.10;;;;;;5287414;26;82656;-39
2024/04/12 03:31:46;;;;;;;;;;;17.10;50.10;;;;;;5287289;26;80906;-38
2024/04/12 03:34:13;;;;;;;;;;;17.10;50.20;;;;;;5296152;26;82202;-38
2024/04/12 03:42:28;;;;;;;;;;;17.10;50.10;;;;;;5277429;26;80301;-38
2024/04/12 03:44:44;;;;;;;;;;;17.10;50.20;;;;;;5292960;26;81257;-38
2024/04/12 03:47:10;;;;;;;;;;;17.10;50.30;;;;;;5287545;26;82688;-38
2024/04/12 03:49:40;;;;;;;;;;;17.00;50.30;;;;;;5293003;26;81413;-38
2024/04/12 03:52:11;;;;;;;;;;;17.10;50.30;;;;;;5292061;26;80843;-38
2024/04/12 03:54:37;;;;;;;;;;;17.10;50.30;;;;;;5283526;26;81655;-38
2024/04/12 03:57:06;;;;;;;;;;;17.00;50.40;;;;;;5308619;26;80453;-38
2024/04/12 03:59:34;;;;;;;;;;;17.00;50.30;;;;;;5282543;26;81504;-37
2024/04/12 04:02:06;;;;;;;;;;;17.00;50.30;;;;;;5291859;26;80442;-38
2024/04/12 04:04:37;;;;;;;;;;;16.90;50.30;;;;;;5288203;26;80215;-37
2024/04/12 04:07:03;;;;;;;;;;;17.00;50.30;;;;;;5291604;26;81065;-38
2024/04/12 04:09:28;;;;;;;;;;;16.90;50.30;;;;;;5292465;26;81728;-38
2024/04/12 04:11:55;;;;;;;;;;;16.90;50.30;;;;;;5277081;26;80450;-38
2024/04/12 04:14:27;;;;;;;;;;;16.90;50.30;;;;;;5302631;26;81547;-38
2024/04/12 04:16:57;;;;;;;;;;;16.80;50.30;;;;;;5281922;26;82242;-38
2024/04/12 04:19:39;;;;;;;;;;;16.80;50.30;;;;;;5291871;26;81896;-39
2024/04/12 04:22:05;;;;;;;;;;;16.80;50.60;;;;;;5287230;26;82424;-37
2024/04/12 04:24:32;;;;;;;;;;;16.80;50.50;;;;;;5287394;26;80701;-38
2024/04/12 04:26:58;;;;;;;;;;;16.80;50.50;;;;;;5310073;26;80419;-38
2024/04/12 04:29:23;;;;;;;;;;;16.70;50.50;;;;;;5276931;26;80310;-38
2024/04/12 04:31:50;;;;;;;;;;;16.80;50.50;;;;;;5300517;26;80536;-38
2024/04/12 04:34:17;;;;;;;;;;;16.80;50.50;;;;;;5279720;26;81634;-38
2024/04/12 04:36:48;;;;;;;;;;;16.70;50.50;;;;;;5286943;26;81134;-38
2024/04/12 04:39:17;;;;;;;;;;;16.70;50.60;;;;;;5287434;26;80174;-38
2024/04/12 04:41:46;;;;;;;;;;;16.70;50.60;;;;;;5275264;26;82026;-38
2024/04/12 04:44:16;;;;;;;;;;;16.70;50.60;;;;;;5297202;26;80358;-38
2024/04/12 04:46:45;;;;;;;;;;;16.60;50.60;;;;;;5282052;26;81721;-38
2024/04/12 04:49:13;;;;;;;;;;;16.70;50.60;;;;;;5293410;26;81979;-38
2024/04/12 04:51:39;;;;;;;;;;;16.60;50.60;;;;;;5302356;26;79594;-38
2024/04/12 04:54:05;;;;;;;;;;;16.60;50.70;;;;;;5295119;26;80557;-38
2024/04/12 04:56:34;;;;;;;;;;;16.60;50.70;;;;;;5308403;26;80832;-38
2024/04/12 04:58:59;;;;;;;;;;;16.60;50.70;;;;;;5285115;26;81245;-38
2024/04/12 05:01:25;;;;;;;;;;;16.60;50.80;;;;;;5290808;26;82786;-38
2024/04/12 05:03:52;;;;;;;;;;;16.50;50.70;;;;;;5287397;26;80450;-38
2024/04/12 05:06:27;;;;;;;;;;;16.50;50.80;;;;;;5297445;26;81460;-38
2024/04/12 05:08:54;;;;;;;;;;;16.50;50.70;;;;;;5283238;26;81941;-38
2024/04/12 05:11:19;;;;;;;;;;;16.50;50.70;;;;;;5280763;26;80411;-38
2024/04/12 05:13:49;;;;;;;;;;;16.50;50.80;;;;;;5302283;26;81762;-38
2024/04/12 05:16:19;;;;;;;;;;;16.50;50.80;;;;;;5271836;26;81647;-38
2024/04/12 05:18:48;;;;;;;;;;;16.50;50.80;;;;;;5285744;26;80431;-38
2024/04/12 05:21:17;;;;;;;;;;;16.50;50.80;;;;;;5288297;26;80624;-38
2024/04/12 05:23:43;;;;;;;;;;;16.50;50.80;;;;;;5290248;26;81431;-38
2024/04/12 05:26:12;;;;;;;;;;;16.40;50.80;;;;;;5297564;26;81678;-38
2024/04/12 05:28:37;;;;;;;;;;;16.50;50.90;;;;;;5261270;26;82216;-38
2024/04/12 05:31:03;;;;;;;;;;;16.50;50.90;;;;;;5303273;26;80631;-38
2024/04/12 05:33:29;;;;;;;;;;;16.40;50.90;;;;;;5280540;26;81727;-38
2024/04/12 05:35:55;;;;;;;;;;;16.40;50.90;;;;;;5291206;26;81872;-38
2024/04/12 05:38:21;;;;;;;;;;;16.40;50.90;;;;;;5296192;26;81404;-38
2024/04/12 05:40:53;;;;;;;;;;;16.40;50.90;;;;;;5277035;26;80398;-38
2024/04/12 05:43:21;;;;;;;;;;;16.40;51.00;;;;;;5304725;26;82100;-38
2024/04/12 05:45:47;;;;;;;;;;;16.40;51.00;;;;;;5275382;26;81423;-38
2024/04/12 05:48:14;;;;;;;;;;;16.40;51.10;;;;;;5288259;26;82107;-38
2024/04/12 05:50:49;;;;;;;;;;;16.40;51.10;;;;;;5286671;26;80216;-38
2024/04/12 05:53:15;;;;;;;;;;;16.40;51.10;;;;;;5283181;26;81728;-39
2024/04/12 05:55:45;;;;;;;;;;;16.40;51.20;;;;;;5301686;26;80955;-38
2024/04/12 05:58:14;;;;;;;;;;;16.40;51.20;;;;;;5280235;26;80510;-38
2024/04/12 06:00:41;;;;;;;;;;;16.30;51.10;;;;;;5305723;26;81766;-40
2024/04/12 06:03:08;;;;;;;;;;;16.30;51.20;;;;;;5302301;26;82136;-38
2024/04/12 06:05:33;;;;;;;;;;;16.30;51.20;;;;;;5300748;26;79807;-37
2024/04/12 06:07:59;;;;;;;;;;;16.30;51.20;;;;;;5296766;26;80922;-38
2024/04/12 06:10:25;;;;;;;;;;;16.30;51.30;;;;;;5295342;26;80177;-38
2024/04/12 06:12:51;;;;;;;;;;;16.30;51.30;;;;;;5304497;26;81325;-38
2024/04/12 06:15:16;;;;;;;;;;;16.30;51.30;;;;;;5281358;26;80911;-38
2024/04/12 06:17:43;;;;;;;;;;;16.30;51.30;;;;;;5302277;26;80694;-38
2024/04/12 06:20:09;;;;;;;;;;;16.30;51.30;;;;;;5293228;26;81601;-38
2024/04/12 06:22:34;;;;;;;;;;;16.30;51.40;;;;;;5299406;26;81906;-37
2024/04/12 06:25:01;;;;;;;;;;;16.30;51.40;;;;;;5287976;26;80245;-38
2024/04/12 06:27:30;;;;;;;;;;;16.30;51.40;;;;;;5286031;26;82567;-38
2024/04/12 06:29:59;;;;;;;;;;;16.30;51.50;;;;;;5302075;26;79650;-38
2024/04/12 06:32:28;;;;;;;;;;;16.30;51.50;;;;;;5296366;26;80289;-38
2024/04/12 06:34:53;;;;;;;;;;;16.30;51.40;;;;;;5295080;26;82293;-38
2024/04/12 06:37:21;;;;;;;;;;;16.30;51.40;;;;;;5296844;26;81420;-38
2024/04/12 06:39:50;;;;;;;;;;;16.30;51.40;;;;;;5282745;26;81290;-37
2024/04/12 06:42:17;;;;;;;;;;;16.30;51.50;;;;;;5296317;26;80876;-38
2024/04/12 06:44:48;;;;;;;;;;;16.30;51.40;;;;;;5285646;26;80371;-37
2024/04/12 06:47:18;;;;;;;;;;;16.30;51.40;;;;;;5294533;26;81728;-37
2024/04/12 06:49:44;;;;;;;;;;;16.40;51.50;;;;;;5299040;26;82114;-38
2024/04/12 06:52:10;;;;;;;;;;;16.30;51.60;;;;;;5286496;26;81511;-37
2024/04/12 06:54:36;;;;;;;;;;;16.30;51.50;;;;;;5307193;26;81346;-37
2024/04/12 06:57:06;;;;;;;;;;;16.40;51.50;;;;;;5283761;26;80511;-37
2024/04/12 06:59:35;;;;;;;;;;;16.40;51.50;;;;;;5298103;26;81635;-37
2024/04/12 07:02:04;;;;;;;;;;;16.40;51.50;;;;;;5279695;26;83454;-38
2024/04/12 07:04:30;;;;;;;;;;;16.40;51.60;;;;;;5279333;26;80509;-38
2024/04/12 07:06:56;;;;;;;;;;;16.40;51.60;;;;;;5295231;26;80244;-37
2024/04/12 07:09:22;;;;;;;;;;;16.40;51.60;;;;;;5283931;26;81316;-38
2024/04/12 07:11:51;;;;;;;;;;;16.40;51.70;;;;;;5296357;26;80660;-37
2024/04/12 07:14:22;;;;;;;;;;;16.40;51.70;;;;;;5279071;26;81104;-38
2024/04/12 07:16:53;;;;;;;;;;;16.40;51.80;;;;;;5284602;26;81418;-37
2024/04/12 07:19:23;;;;;;;;;;;16.40;51.80;;;;;;5291240;26;80498;-37
2024/04/12 07:21:54;;;;;;;;;;;16.40;52.50;;;;;;5277183;26;81096;-37
2024/04/12 07:24:23;;;;;;;;;;;16.40;51.90;;;;;;5306935;26;80280;-37
2024/04/12 07:26:49;;;;;;;;;;;16.40;52.10;;;;;;5281830;26;81726;-38
2024/04/12 07:29:14;;;;;;;;;;;16.40;52.10;;;;;;5306021;26;82354;-37
2024/04/12 07:31:42;;;;;;;;;;;16.40;52.20;;;;;;5291778;26;80455;-37
2024/04/12 07:34:08;;;;;;;;;;;16.40;52.20;;;;;;5297291;26;80307;-37
2024/04/12 07:36:34;;;;;;;;;;;16.40;52.30;;;;;;5285697;26;80980;-37
2024/04/12 07:39:03;;;;;;;;;;;16.40;52.20;;;;;;5282573;26;80741;-37
2024/04/12 07:41:31;;;;;;;;;;;16.40;52.20;;;;;;5307871;26;82313;-38
2024/04/12 07:43:57;;;;;;;;;;;16.40;52.50;;;;;;5281747;26;79764;-38
2024/04/12 07:46:27;;;;;;;;;;;16.40;52.80;;;;;;5302076;26;80233;-37
2024/04/12 07:48:57;;;;;;;;;;;16.40;52.80;;;;;;5280940;26;82120;-38
2024/04/12 07:51:28;;;;;;;;;;;16.40;52.90;;;;;;5280785;26;81294;-37
2024/04/12 07:53:53;;;;;;;;;;;16.40;53.00;;;;;;5312995;26;82540;-38
2024/04/12 07:56:21;;;;;;;;;;;16.40;53.20;;;;;;5288655;26;82413;-37
2024/04/12 07:59:01;;;;;;;;;;;16.50;53.20;;;;;;5300797;26;80767;-37
2024/04/12 08:01:27;;;;;;;;;;;16.50;53.60;;;;;;5286724;26;82268;-38
2024/04/12 08:04:05;;;;;;;;;;;16.50;53.60;;;;;;5296731;26;80615;-37
2024/04/12 08:06:36;;;;;;;;;;;16.50;53.40;;;;;;5293327;26;82046;-37
2024/04/12 08:09:06;;;;;;;;;;;16.50;53.50;;;;;;5280811;26;81386;-38
2024/04/12 08:11:34;;;;;;;;;;;16.50;53.70;;;;;;5307531;26;80166;-38
2024/04/12 08:14:07;;;;;;;;;;;16.50;53.30;;;;;;5285227;26;81703;-38
2024/04/12 08:16:35;;;;;;;;;;;16.50;53.70;;;;;;5303935;26;82931;-37
2024/04/12 08:19:21;;;;;;;;;;;16.50;53.80;;;;;;5280713;26;81814;-38
2024/04/12 08:21:47;;;;;;;;;;;16.50;53.90;;;;;;5292324;26;81214;-37
2024/04/12 08:24:22;;;;;;;;;;;16.50;53.70;;;;;;5291188;26;80575;-37
2024/04/12 08:26:51;;;;;;;;;;;16.60;54.00;;;;;;5283651;26;81773;-37
2024/04/12 08:29:24;;;;;;;;;;;16.60;54.80;;;;;;5284511;26;82100;-38
2024/04/12 08:34:42;;;;;;;;;;;16.60;54.00;;;;;;5301927;26;79691;-37
2024/04/12 08:37:17;;;;;;;;;;;16.60;54.20;;;;;;5278809;26;82157;-38
2024/04/12 08:39:43;;;;;;;;;;;16.60;54.00;;;;;;5301339;26;80195;-37
2024/04/12 08:42:14;;;;;;;;;;;16.60;54.20;;;;;;5287074;26;83101;-38
2024/04/12 08:44:40;;;;;;;;;;;16.60;54.30;;;;;;5292982;26;80612;-38
2024/04/12 08:47:16;;;;;;;;;;;16.60;54.40;;;;;;5297619;26;81679;-37
2024/04/12 08:49:53;;;;;;;;;;;16.60;54.40;;;;;;5283643;26;82574;-37
2024/04/12 08:52:28;;;;;;;;;;;16.60;54.10;;;;;;5292982;26;80728;-38
2024/04/12 08:54:59;;;;;;;;;;;16.70;54.40;;;;;;5279914;26;81587;-38
2024/04/12 08:57:27;;;;;;;;;;;16.60;54.40;;;;;;5293471;26;82097;-37
2024/04/12 08:59:58;;;;;;;;;;;16.70;54.50;;;;;;5283499;26;80672;-37
2024/04/12 09:02:28;;;;;;;;;;;16.70;54.40;;;;;;5287576;26;80881;-38
2024/04/12 09:04:54;;;;;;;;;;;16.70;54.40;;;;;;5292109;26;80865;-38
2024/04/12 09:07:23;;;;;;;;;;;16.70;54.40;;;;;;5276583;26;81211;-38
2024/04/12 09:09:52;;;;;;;;;;;16.70;54.40;;;;;;5301971;26;82255;-38
2024/04/12 09:12:22;;;;;;;;;;;16.70;54.50;;;;;;5277357;26;80675;-38
2024/04/12 09:14:48;;;;;;;;;;;16.80;54.60;;;;;;5289115;26;80696;-38
2024/04/12 09:17:24;;;;;;;;;;;16.80;54.50;;;;;;5298388;26;81192;-38
2024/04/12 09:19:50;;;;;;;;;;;16.80;54.70;;;;;;5289240;26;81025;-38
2024/04/12 09:22:17;;;;;;;;;;;16.80;54.50;;;;;;5296649;26;81559;-38
2024/04/12 09:24:47;;;;;;;;;;;16.80;54.50;;;;;;5293963;26;81280;-38
2024/04/12 09:27:22;;;;;;;;;;;16.80;54.70;;;;;;5282939;26;80724;-38
2024/04/12 09:29:59;;;;;;;;;;;16.80;54.50;;;;;;5290076;26;81875;-38
2024/04/12 09:35:12;;;;;;;;;;;16.80;54.60;;;;;;5290622;26;81317;-38
2024/04/12 09:37:53;;;;;;;;;;;16.90;54.70;;;;;;5289539;26;81975;-38
2024/04/12 09:40:28;;;;;;;;;;;16.90;54.60;;;;;;5284058;26;80709;-38
2024/04/12 09:45:28;;;;;;;;;;;17.00;54.60;;;;;;5281320;26;80853;-38
2024/04/12 10:38:02;;;;;;;;;;;17.30;54.10;;;;;;5264730;26;80680;-38
2024/04/12 10:40:30;;;;;;;;;;;17.30;54.00;;;;;;5295814;26;82016;-38
2024/04/12 10:42:59;;;;;;;;;;;17.30;54.10;;;;;;5282554;26;87044;-38
2024/04/12 10:45:29;;;;;;;;;;;17.30;54.10;;;;;;5283292;26;86137;-38
2024/04/12 10:47:55;;;;;;;;;;;17.40;54.10;;;;;;5297781;26;87361;-38
2024/04/12 10:50:21;;;;;;;;;;;17.40;54.00;;;;;;5273363;26;86848;-38
2024/04/12 10:52:47;;;;;;;;;;;17.40;53.90;;;;;;5288023;26;86235;-38
2024/04/12 10:55:16;;;;;;;;;;;17.40;53.90;;;;;;5279642;26;88036;-38
2024/04/12 10:57:42;;;;;;;;;;;17.40;53.80;;;;;;5298836;26;87154;-38
2024/04/12 11:00:14;;;;;;;;;;;17.50;53.70;;;;;;5289374;26;87085;-38
2024/04/12 11:02:43;;;;;;;;;;;17.50;53.70;;;;;;5285541;26;87229;-38
2024/04/12 11:07:47;;;;;;;;;;;17.50;53.70;;;;;;5272921;26;85163;-38
2024/04/12 11:10:54;;;;;;;;;;;17.50;53.70;;;;;;5291337;26;84509;-38
2024/04/12 11:13:01;;;;;;;;;;;17.60;53.60;;;;;;5275842;26;85477;-38
2024/04/12 11:31:47;;;;;;;;;;;17.70;53.70;;;;;;5288286;26;85626;-39
2024/04/12 11:34:17;;;;;;;;;;;17.70;53.60;;;;;;5292530;26;85393;-38
2024/04/12 11:36:43;;;;;;;;;;;17.80;53.70;;;;;;5274887;26;86827;-38
2024/04/12 11:39:17;;;;;;;;;;;17.80;53.60;;;;;;5287517;26;85843;-38
2024/04/12 11:41:46;;;;;;;;;;;17.90;53.60;;;;;;5282682;26;85586;-38
2024/04/12 11:44:19;;;;;;;;;;;17.90;53.60;;;;;;5282552;26;87015;-38
2024/04/12 11:46:48;;;;;;;;;;;17.90;53.40;;;;;;5296177;26;85210;-39
2024/04/12 11:49:24;;;;;;;;;;;17.90;53.30;;;;;;5267547;26;85363;-38
2024/04/12 11:51:57;;;;;;;;;;;17.90;53.40;;;;;;5294173;26;87001;-38
2024/04/12 11:54:23;;;;;;;;;;;17.90;53.20;;;;;;5270641;26;85743;-38
2024/04/12 11:56:49;;;;;;;;;;;18.00;53.30;;;;;;5279025;26;86448;-38
2024/04/12 11:59:18;;;;;;;;;;;18.10;53.30;;;;;;5286449;26;86145;-38
2024/04/12 12:01:46;;;;;;;;;;;18.10;53.00;;;;;;5277456;26;84947;-38
2024/04/12 12:04:11;;;;;;;;;;;18.10;53.20;;;;;;5297135;26;85256;-38
2024/04/12 12:06:38;;;;;;;;;;;18.10;53.10;;;;;;5279189;26;85114;-38
2024/04/12 12:09:11;;;;;;;;;;;18.10;53.10;;;;;;5287539;26;86595;-38
2024/04/12 12:11:42;;;;;;;;;;;18.10;53.00;;;;;;5288720;26;87138;-38
2024/04/12 12:14:08;;;;;;;;;;;18.10;53.00;;;;;;5274943;26;85242;-38
2024/04/12 12:16:34;;;;;;;;;;;18.20;52.90;;;;;;5284507;26;85352;-38
2024/04/12 12:18:59;;;;;;;;;;;18.20;52.70;;;;;;5263812;26;86258;-38
2024/04/12 12:21:25;;;;;;;;;;;18.20;53.00;;;;;;5289782;26;86110;-38
2024/04/12 12:23:51;;;;;;;;;;;18.20;52.80;;;;;;5283801;26;85617;-38
2024/04/12 12:26:16;;;;;;;;;;;18.30;52.50;;;;;;5288720;26;86606;-38
2024/04/12 12:28:42;;;;;;;;;;;18.20;52.50;;;;;;5291127;26;85887;-39
2024/04/12 12:31:07;;;;;;;;;;;18.20;52.60;;;;;;5269025;26;86386;-38
2024/04/12 12:33:38;;;;;;;;;;;18.30;52.60;;;;;;5288398;26;86199;-38
2024/04/12 12:36:06;;;;;;;;;;;18.20;52.60;;;;;;5276573;26;87537;-39
2024/04/12 12:38:36;;;;;;;;;;;18.30;52.50;;;;;;5289133;26;86350;-38
2024/04/12 12:41:03;;;;;;;;;;;18.40;52.70;;;;;;5288254;26;85747;-38
2024/04/12 12:43:29;;;;;;;;;;;18.40;52.60;;;;;;5275143;26;86473;-38
2024/04/12 12:45:57;;;;;;;;;;;18.40;52.60;;;;;;5299880;26;87036;-38
2024/04/12 12:48:27;;;;;;;;;;;18.40;52.30;;;;;;5272107;26;85472;-38
2024/04/12 12:50:57;;;;;;;;;;;18.50;52.40;;;;;;5281092;26;87682;-39
2024/04/12 12:53:26;;;;;;;;;;;18.50;52.50;;;;;;5289041;26;85225;-38
2024/04/12 12:55:53;;;;;;;;;;;18.50;51.90;;;;;;5282264;26;86616;-38
2024/04/12 12:58:22;;;;;;;;;;;18.50;52.30;;;;;;5280249;26;87000;-38
2024/04/12 13:00:47;;;;;;;;;;;18.50;52.30;;;;;;5273240;26;86552;-38
2024/04/12 13:03:17;;;;;;;;;;;18.60;52.30;;;;;;5291543;26;85969;-39
2024/04/12 13:05:48;;;;;;;;;;;18.60;52.20;;;;;;5263442;26;87167;-39
2024/04/12 13:08:17;;;;;;;;;;;18.60;52.30;;;;;;5288052;26;85595;-39
2024/04/12 13:10:43;;;;;;;;;;;18.60;52.10;;;;;;5280912;26;86173;-39
2024/04/12 13:13:17;;;;;;;;;;;18.60;52.30;;;;;;5286164;26;85704;-38
2024/04/12 13:15:44;;;;;;;;;;;18.60;51.90;;;;;;5299206;26;85539;-38
2024/04/12 13:18:09;;;;;;;;;;;18.70;52.30;;;;;;5273686;26;87071;-38
2024/04/12 13:20:36;;;;;;;;;;;18.70;52.30;;;;;;5289867;26;86303;-38
2024/04/12 13:23:02;;;;;;;;;;;18.70;52.10;;;;;;5281799;26;86976;-38
2024/04/12 13:25:28;;;;;;;;;;;18.70;52.10;;;;;;5284004;26;87034;-37
2024/04/12 13:27:54;;;;;;;;;;;18.70;52.00;;;;;;5284897;26;85224;-39
2024/04/12 13:30:21;;;;;;;;;;;18.70;52.10;;;;;;5275894;26;86632;-38
2024/04/12 13:32:53;;;;;;;;;;;18.70;51.30;;;;;;5297337;26;87084;-39
2024/04/12 13:35:21;;;;;;;;;;;18.80;51.90;;;;;;5280265;26;86429;-38
2024/04/12 13:37:48;;;;;;;;;;;18.80;51.70;;;;;;5289498;26;87020;-39
2024/04/12 13:40:19;;;;;;;;;;;18.90;52.00;;;;;;5278905;26;84609;-39
2024/04/12 13:42:47;;;;;;;;;;;18.90;52.00;;;;;;5286210;26;85991;-39
2024/04/12 13:50:56;;;;;;;;;;;18.90;52.00;;;;;;5296907;26;86153;-39
2024/04/12 13:53:32;;;;;;;;;;;18.90;51.90;;;;;;5278282;26;86864;-38
2024/04/12 13:56:19;;;;;;;;;;;18.90;51.80;;;;;;5297478;26;85973;-40
2024/04/12 13:59:10;;;;;;;;;;;18.90;51.70;;;;;;5281123;26;88128;-39
2024/04/12 14:01:40;;;;;;;;;;;19.00;51.90;;;;;;5292391;26;85835;-38
2024/04/12 14:04:09;;;;;;;;;;;19.00;51.50;;;;;;5279904;26;86531;-38
2024/04/12 14:06:38;;;;;;;;;;;19.00;51.60;;;;;;5284940;26;86628;-38
2024/04/12 14:09:03;;;;;;;;;;;19.00;51.40;;;;;;5286782;26;85770;-38
2024/04/12 14:11:29;;;;;;;;;;;19.10;51.60;;;;;;5272294;26;86405;-39
2024/04/12 14:13:55;;;;;;;;;;;19.10;51.50;;;;;;5291140;26;86954;-40
2024/04/12 14:16:28;;;;;;;;;;;19.10;51.40;;;;;;5274741;26;85505;-38
2024/04/12 14:18:57;;;;;;;;;;;19.10;51.40;;;;;;5290580;26;87030;-38
2024/04/12 14:21:23;;;;;;;;;;;19.10;51.40;;;;;;5289414;26;85850;-38
2024/04/12 14:23:49;;;;;;;;;;;19.20;51.40;;;;;;5269298;26;85514;-38
2024/04/12 14:26:14;;;;;;;;;;;19.20;51.40;;;;;;5296391;26;87293;-39
2024/04/12 14:28:40;;;;;;;;;;;19.20;51.50;;;;;;5267511;26;85891;-39
2024/04/12 14:31:06;;;;;;;;;;;19.20;51.40;;;;;;5293923;26;88959;-38
2024/04/12 14:33:32;;;;;;;;;;;19.20;51.40;;;;;;5280481;26;86929;-38
2024/04/12 14:35:59;;;;;;;;;;;19.30;51.50;;;;;;5276131;26;85208;-39
2024/04/12 14:38:29;;;;;;;;;;;19.30;51.40;;;;;;5287581;26;86625;-39
2024/04/12 14:40:59;;;;;;;;;;;19.30;51.20;;;;;;5281801;26;85256;-39
2024/04/12 14:43:25;;;;;;;;;;;19.30;51.10;;;;;;5282628;26;86678;-39
2024/04/12 14:45:51;;;;;;;;;;;19.30;50.90;;;;;;5266111;26;85990;-38
2024/04/12 14:48:16;;;;;;;;;;;19.40;50.90;;;;;;5289635;26;85446;-39
2024/04/12 14:50:42;;;;;;;;;;;19.40;51.40;;;;;;5277280;26;87204;-39
2024/04/12 14:53:08;;;;;;;;;;;19.40;51.00;;;;;;5283425;26;85750;-38
2024/04/12 14:55:34;;;;;;;;;;;19.40;51.00;;;;;;5295553;26;84652;-38
2024/04/12 14:57:59;;;;;;;;;;;19.40;51.00;;;;;;5273463;26;86235;-39
2024/04/12 15:00:25;;;;;;;;;;;19.50;51.00;;;;;;5288545;26;86462;-38
2024/04/12 15:49:24;;;;;;;;;;;19.70;51.30;;;;;;5290493;26;85320;-38
2024/04/12 15:51:53;;;;;;;;;;;19.70;51.10;;;;;;5281935;26;85292;-38
2024/04/12 15:54:21;;;;;;;;;;;19.80;51.30;;;;;;5297052;26;86613;-38
2024/04/12 16:13:12;;;;;;;;;;;19.80;51.50;;;;;;5286873;26;85513;-38
2024/04/12 16:15:38;;;;;;;;;;;19.80;51.50;;;;;;5280575;26;85889;-38
2024/04/12 16:18:04;;;;;;;;;;;19.90;51.70;;;;;;5294582;26;87294;-39
2024/04/12 16:20:30;;;;;;;;;;;19.90;51.70;;;;;;5284244;26;85664;-38
2024/04/12 16:22:56;;;;;;;;;;;19.90;51.70;;;;;;5287641;26;86940;-38
2024/04/12 16:25:21;;;;;;;;;;;19.90;51.70;;;;;;5276592;26;87030;-38
2024/04/12 16:27:47;;;;;;;;;;;19.90;51.80;;;;;;5277283;26;85390;-38
2024/04/12 16:30:13;;;;;;;;;;;19.90;51.70;;;;;;5289293;26;87380;-38
2024/04/12 16:32:38;;;;;;;;;;;19.90;51.60;;;;;;5272631;26;85827;-39
2024/04/12 16:35:05;;;;;;;;;;;19.90;51.70;;;;;;5291135;26;86984;-38
2024/04/12 16:37:30;;;;;;;;;;;20.00;51.80;;;;;;5283602;26;86021;-38
2024/04/12 16:39:56;;;;;;;;;;;20.00;51.80;;;;;;5291253;26;84378;-38
2024/04/12 16:42:21;;;;;;;;;;;20.00;51.90;;;;;;5294162;26;86064;-38
2024/04/12 16:44:47;;;;;;;;;;;20.00;51.90;;;;;;5273366;26;87131;-38
2024/04/12 16:47:13;;;;;;;;;;;20.00;51.90;;;;;;5290560;26;86166;-38
2024/04/12 16:49:39;;;;;;;;;;;20.00;52.00;;;;;;5276970;26;87533;-38
2024/04/12 16:52:04;;;;;;;;;;;20.00;52.00;;;;;;5284732;26;85849;-38
2024/04/12 16:54:30;;;;;;;;;;;20.00;52.00;;;;;;5289281;26;85305;-38